Weather History for KTIF - December, 2013

Change the Weather History Date:

Saturday, December 28, 2013

  Actual Average (KLBF) Record (KLBF)
Temperature  
Mean Temperature 32 °F 24 °F  
Max Temperature 54 °F 38 °F 65 °F (1999)
Min Temperature 10 °F 11 °F -23 °F (1880)
Degree Days  
Heating Degree Days 33 41  
Month to date heating degree days 1109  
Since 1 July heating degree days 2660  
Cooling Degree Days 0 0  
Month to date cooling degree days 0  
Year to date cooling degree days 768  
Moisture  
Dew Point 20 °F    
Average Humidity 60    
Maximum Humidity 77    
Minimum Humidity 29    
Precipitation  
Precipitation 0.00 in 0.01 in 0.50 in (1889)
Month to date precipitation 0.37  
Year to date precipitation 20.19  
Snow  
Snow 0.00 in 0.10 in 4.40 in (1948)
Month to date snowfall 4.1  
Since 1 July snowfall 10.3  
Snow Depth -    
Sea Level Pressure  
Sea Level Pressure 29.96 in    
Wind  
Wind Speed 11 mph (NW)    
Max Wind Speed 30 mph    
Max Gust Speed 46 mph    
Visibility 10 miles    
Events Snow    
T = Trace of Precipitation, MM = Missing Value Source: NWS Daily Summary

Daily Weather History Graph

Daily Weather History Graph

Search for Another Location

Airport or City:

Trip Planner

Search our weather history database for the weather conditions in past years. The results will help you decide how hot, cold, wet, or windy it might be!

Date:

Astronomy

Dec. 28, 2013 Rise Set
Actual Time 8:09 AM CST 5:18 PM CST
Civil Twilight 7:37 AM CST 5:50 PM CST
Nautical Twilight 7:02 AM CST 6:25 PM CST
Astronomical Twilight 6:28 AM CST 6:59 PM CST
Moon 3:46 AM CST (12/28) 2:12 PM CST (12/28)
Length of Visible Light 10h 12m
Length of Day
9h 09m
Waning Crescent, 19% of the Moon is Illuminated
Dec 28
Waning Crescent
Jan 1
New
Jan 7
First Quarter
Jan 15
Full
Jan 23
Last Quarter

Hourly Weather History & Observations

Time (CST) Temp. Windchill Dew Point Humidity Pressure Visibility Wind Dir Wind Speed Gust Speed Precip Events Conditions
12:15 AM 34.0 °F 28.8 °F 27.1 °F 76% 30.00 in 10.0 mi SSW 5.8 mph - N/A   Clear
12:35 AM 35.8 °F 30.9 °F 27.5 °F 72% 29.99 in 10.0 mi SSW 5.8 mph - N/A   Clear
12:55 AM 32.2 °F 27.7 °F 25.7 °F 77% 29.98 in 10.0 mi West 4.6 mph - N/A   Clear
1:15 AM 34.2 °F 30.0 °F 27.0 °F 75% 29.97 in 10.0 mi SW 4.6 mph - N/A   Clear
1:35 AM 33.3 °F 30.2 °F 26.4 °F 76% 29.95 in 10.0 mi SW 3.5 mph - N/A   Clear
1:55 AM 37.2 °F 31.2 °F 27.1 °F 67% 29.94 in 10.0 mi SSW 8.1 mph - N/A   Clear
2:15 AM 33.1 °F 30.0 °F 26.1 °F 75% 29.94 in 10.0 mi West 3.5 mph - N/A   Clear
2:35 AM 35.8 °F 33.0 °F 26.1 °F 68% 29.93 in 10.0 mi SSW 3.5 mph - N/A   Clear
2:55 AM 33.4 °F 30.4 °F 26.1 °F 74% 29.92 in 10.0 mi SW 3.5 mph - N/A   Clear
3:15 AM 39.2 °F 33.6 °F 26.6 °F 61% 29.91 in 10.0 mi SSW 8.1 mph - N/A   Clear
3:35 AM 32.0 °F 28.7 °F 25.2 °F 76% 29.91 in 10.0 mi WNW 3.5 mph - N/A   Clear
3:55 AM 32.7 °F 29.6 °F 25.5 °F 75% 29.90 in 10.0 mi WNW 3.5 mph - N/A   Clear
4:15 AM 33.6 °F - 25.5 °F 72% 29.89 in 10.0 mi Calm Calm - N/A   Clear
4:35 AM 36.9 °F 33.1 °F 25.5 °F 64% 29.87 in 10.0 mi SSW 4.6 mph - N/A   Clear
4:55 AM 32.9 °F 28.5 °F 24.6 °F 72% 29.86 in 10.0 mi SSW 4.6 mph - N/A   Clear
5:15 AM 35.8 °F 33.0 °F 24.3 °F 63% 29.85 in 10.0 mi SW 3.5 mph - N/A   Clear
5:35 AM 35.1 °F 31.0 °F 24.3 °F 65% 29.85 in 10.0 mi SW 4.6 mph - N/A   Clear
5:55 AM 35.1 °F 29.3 °F 23.7 °F 63% 29.84 in 10.0 mi SSW 6.9 mph - N/A   Clear
6:15 AM 35.1 °F 32.2 °F 23.5 °F 63% 29.83 in 10.0 mi West 3.5 mph - N/A   Clear
6:35 AM 32.5 °F 29.3 °F 23.5 °F 69% 29.83 in 10.0 mi WSW 3.5 mph - N/A   Clear
6:55 AM 35.6 °F 31.7 °F 22.8 °F 60% 29.81 in 10.0 mi SW 4.6 mph - N/A   Clear
7:15 AM 33.8 °F 28.6 °F 23.0 °F 65% 29.81 in 10.0 mi WSW 5.8 mph - N/A   Clear
7:35 AM 33.8 °F 29.6 °F 23.0 °F 65% 29.81 in 10.0 mi SW 4.6 mph - N/A   Clear
7:55 AM 32.0 °F 28.7 °F 23.0 °F 69% 29.80 in 10.0 mi West 3.5 mph - N/A   Clear
8:15 AM 32.2 °F - 23.5 °F 70% 29.80 in 10.0 mi Calm Calm - N/A   Clear
8:35 AM 34.7 °F - 23.7 °F 64% 29.80 in 10.0 mi Calm Calm - N/A   Clear
8:55 AM 35.2 °F - 24.4 °F 65% 29.80 in 10.0 mi Calm Calm - N/A   Clear
9:15 AM 37.4 °F 34.9 °F 24.8 °F 60% 29.80 in 10.0 mi NNW 3.5 mph - N/A   Clear
9:35 AM 41.9 °F - 26.8 °F 55% 29.80 in 10.0 mi Calm Calm - N/A   Clear
9:55 AM 46.2 °F 40.5 °F 27.3 °F 48% 29.79 in 10.0 mi West 12.7 mph - N/A   Clear
10:15 AM 50.7 °F - 25.5 °F 38% 29.80 in 10.0 mi West 12.7 mph - N/A   Clear
10:35 AM 52.0 °F - 25.7 °F 36% 29.81 in 10.0 mi WNW 10.4 mph 16.1 mph N/A   Clear
10:55 AM 53.6 °F - 24.4 °F 32% 29.81 in 10.0 mi WNW 11.5 mph 20.7 mph N/A   Clear
11:15 AM 54.0 °F - 23.7 °F 31% 29.81 in 10.0 mi WNW 15.0 mph 21.9 mph N/A   Clear
11:35 AM 54.7 °F - 23.7 °F 30% 29.82 in 10.0 mi NW 16.1 mph 21.9 mph N/A   Clear
11:55 AM 54.9 °F - 23.0 °F 29% 29.83 in 10.0 mi NNW 21.9 mph 27.6 mph N/A   Clear
12:15 PM 53.2 °F - 23.5 °F 32% 29.83 in 10.0 mi NNW 23.0 mph 32.2 mph N/A   Clear
12:35 PM 52.0 °F - 23.9 °F 34% 29.83 in 10.0 mi North 24.2 mph 40.3 mph N/A   Clear
12:55 PM 51.8 °F - 25.7 °F 36% 29.84 in 10.0 mi North 24.2 mph 32.2 mph N/A   Clear
1:15 PM 50.4 °F - 25.7 °F 38% 29.85 in 10.0 mi North 19.6 mph 34.5 mph N/A   Clear
1:35 PM 50.4 °F - 25.7 °F 38% 29.85 in 10.0 mi North 25.3 mph 33.4 mph N/A   Clear
1:55 PM 49.8 °F - 26.4 °F 40% 29.86 in 10.0 mi North 28.8 mph 40.3 mph N/A   Clear
2:15 PM 48.2 °F - 26.4 °F 43% 29.87 in 10.0 mi North 27.6 mph 42.6 mph N/A   Clear
2:35 PM 46.9 °F - 27.0 °F 46% 29.89 in 10.0 mi North 25.3 mph 32.2 mph N/A   Clear
2:55 PM 45.5 °F 36.5 °F 27.5 °F 49% 29.90 in 10.0 mi North 26.5 mph 36.8 mph N/A   Clear
3:15 PM 43.7 °F 34.3 °F 26.4 °F 51% 29.91 in 10.0 mi North 25.3 mph 39.1 mph N/A   Clear
3:35 PM 41.0 °F 30.2 °F 27.3 °F 58% 29.93 in 10.0 mi North 27.6 mph 36.8 mph N/A   Clear
3:55 PM 37.6 °F 25.9 °F 25.7 °F 62% 29.96 in 10.0 mi NNW 26.5 mph 38.0 mph N/A   Clear
4:15 PM 35.4 °F 22.7 °F 23.7 °F 62% 29.98 in 10.0 mi North 27.6 mph 36.8 mph N/A   Clear
4:35 PM 32.2 °F 18.6 °F 21.0 °F 63% 29.99 in 10.0 mi North 26.5 mph 35.7 mph N/A   Clear
4:55 PM 29.7 °F 16.7 °F 18.9 °F 64% 30.03 in 10.0 mi North 20.7 mph 35.7 mph N/A   Clear
5:15 PM 26.4 °F 11.2 °F 16.5 °F 66% 30.05 in 10.0 mi North 25.3 mph 34.5 mph N/A   Clear
5:35 PM 24.8 °F 8.1 °F 15.8 °F 69% 30.07 in 10.0 mi NNW 28.8 mph 32.2 mph N/A   Mostly Cloudy
5:55 PM 21.9 °F 4.5 °F 11.8 °F 65% 30.09 in 10.0 mi NNW 27.6 mph 46.0 mph N/A   Scattered Clouds
6:15 PM 20.3 °F 2.0 °F 10.4 °F 66% 30.11 in 10.0 mi North 28.8 mph 40.3 mph N/A   Clear
6:35 PM 19.4 °F 2.1 °F 9.5 °F 65% 30.12 in 10.0 mi North 24.2 mph 32.2 mph N/A   Mostly Cloudy
6:55 PM 18.5 °F 0.6 °F 8.6 °F 65% 30.13 in 10.0 mi North 25.3 mph 41.4 mph N/A   Overcast
7:15 PM 17.6 °F 0.9 °F 8.2 °F 67% 30.15 in 10.0 mi North 20.7 mph 34.5 mph N/A   Overcast
7:35 PM 16.7 °F -1.8 °F 7.5 °F 67% 30.17 in 10.0 mi North 25.3 mph 38.0 mph N/A   Overcast
7:55 PM 16.0 °F -3.5 °F 6.4 °F 66% 30.17 in 10.0 mi North 27.6 mph 38.0 mph N/A Snow Light Snow
8:15 PM 15.3 °F -3.8 °F 5.9 °F 67% 30.19 in 10.0 mi North 25.3 mph 34.5 mph N/A   Overcast
8:35 PM 14.9 °F -3.5 °F 7.3 °F 72% 30.19 in 5.0 mi NNW 23.0 mph 29.9 mph N/A Snow Light Snow
8:55 PM 14.5 °F -6.1 °F 5.9 °F 69% 30.21 in 7.0 mi North 29.9 mph 40.3 mph N/A Snow Light Snow
9:15 PM 14.0 °F -5.1 °F 5.7 °F 70% 30.21 in 10.0 mi NNW 24.2 mph 38.0 mph N/A   Overcast
9:35 PM 13.3 °F -6.4 °F 3.7 °F 66% 30.23 in 10.0 mi NNW 25.3 mph 41.4 mph N/A   Overcast
9:55 PM 12.6 °F -7.8 °F 3.0 °F 66% 30.24 in 10.0 mi NNW 26.5 mph 35.7 mph N/A   Overcast
10:15 PM 12.2 °F -7.1 °F 2.7 °F 66% 30.24 in 10.0 mi North 23.0 mph 36.8 mph N/A   Overcast
10:35 PM 12.0 °F -6.5 °F 2.7 °F 66% 30.25 in 10.0 mi NNW 20.7 mph 32.2 mph N/A   Overcast
10:55 PM 11.7 °F -9.7 °F 2.3 °F 66% 30.25 in 10.0 mi North 28.8 mph 38.0 mph N/A   Overcast
11:15 PM 10.9 °F -9.9 °F 1.8 °F 67% 30.26 in 10.0 mi North 26.5 mph 38.0 mph N/A   Overcast
11:35 PM 10.9 °F -8.3 °F 2.1 °F 68% 30.27 in 10.0 mi NNW 21.9 mph 32.2 mph N/A   Overcast
11:55 PM 10.8 °F -7.7 °F 1.8 °F 67% 30.28 in 10.0 mi North 19.6 mph 31.1 mph N/A   Overcast